sensor_id;sensor_type;location;lat;lon;timestamp;pressure;altitude;pressure_sealevel;temperature
79756;BMP280;69239;50.678;12.280;2023-12-20T00:02:24;97245.22;;;5.21
79756;BMP280;69239;50.678;12.280;2023-12-20T00:05:17;97256.25;;;5.37
79756;BMP280;69239;50.678;12.280;2023-12-20T00:07:43;97226.97;;;5.16
79756;BMP280;69239;50.678;12.280;2023-12-20T00:10:17;97213.97;;;5.11
79756;BMP280;69239;50.678;12.280;2023-12-20T00:12:48;97216.00;;;5.14
79756;BMP280;69239;50.678;12.280;2023-12-20T00:15:14;97240.88;;;5.35
79756;BMP280;69239;50.678;12.280;2023-12-20T00:17:49;97213.16;;;5.16
79756;BMP280;69239;50.678;12.280;2023-12-20T00:20:20;97209.22;;;5.18
79756;BMP280;69239;50.678;12.280;2023-12-20T00:22:50;97204.50;;;5.20
79756;BMP280;69239;50.678;12.280;2023-12-20T00:25:28;97188.91;;;5.15
79756;BMP280;69239;50.678;12.280;2023-12-20T00:27:56;97202.66;;;5.21
79756;BMP280;69239;50.678;12.280;2023-12-20T00:30:21;97206.09;;;5.16
79756;BMP280;69239;50.678;12.280;2023-12-20T00:33:22;97220.03;;;5.30
79756;BMP280;69239;50.678;12.280;2023-12-20T00:36:18;97225.22;;;5.35
79756;BMP280;69239;50.678;12.280;2023-12-20T00:38:47;97192.53;;;5.14
79756;BMP280;69239;50.678;12.280;2023-12-20T00:41:17;97200.31;;;5.19
79756;BMP280;69239;50.678;12.280;2023-12-20T00:43:49;97179.00;;;5.12
79756;BMP280;69239;50.678;12.280;2023-12-20T00:46:37;97179.06;;;5.07
79756;BMP280;69239;50.678;12.280;2023-12-20T00:49:19;97181.13;;;5.10
79756;BMP280;69239;50.678;12.280;2023-12-20T00:51:45;97179.13;;;5.02
79756;BMP280;69239;50.678;12.280;2023-12-20T00:54:24;97177.56;;;5.01
79756;BMP280;69239;50.678;12.280;2023-12-20T00:57:20;97174.44;;;4.99
79756;BMP280;69239;50.678;12.280;2023-12-20T00:59:51;97195.25;;;5.09
79756;BMP280;69239;50.678;12.280;2023-12-20T01:02:25;97177.56;;;5.01
79756;BMP280;69239;50.678;12.280;2023-12-20T01:05:12;97191.56;;;5.10
79756;BMP280;69239;50.678;12.280;2023-12-20T01:07:42;97170.00;;;4.99
79756;BMP280;69239;50.678;12.280;2023-12-20T01:10:31;97207.34;;;5.24
79756;BMP280;69239;50.678;12.280;2023-12-20T01:13:23;97169.22;;;4.99
79756;BMP280;69239;50.678;12.280;2023-12-20T01:16:15;97170.75;;;5.05
79756;BMP280;69239;50.678;12.280;2023-12-20T01:18:41;97179.06;;;5.07
79756;BMP280;69239;50.678;12.280;2023-12-20T01:21:17;97199.78;;;5.22
79756;BMP280;69239;50.678;12.280;2023-12-20T01:23:52;97174.97;;;5.01
79756;BMP280;69239;50.678;12.280;2023-12-20T01:26:31;97186.44;;;5.00
79756;BMP280;69239;50.678;12.280;2023-12-20T01:29:07;97179.66;;;4.99
79756;BMP280;69239;50.678;12.280;2023-12-20T01:31:44;97165.94;;;4.93
79756;BMP280;69239;50.678;12.280;2023-12-20T01:34:48;97158.38;;;4.92
79756;BMP280;69239;50.678;12.280;2023-12-20T01:37:16;97148.25;;;4.85
79756;BMP280;69239;50.678;12.280;2023-12-20T01:39:49;97139.16;;;4.82
79756;BMP280;69239;50.678;12.280;2023-12-20T01:42:24;97140.50;;;4.80
79756;BMP280;69239;50.678;12.280;2023-12-20T01:44:52;97154.00;;;4.87
79756;BMP280;69239;50.678;12.280;2023-12-20T01:47:18;97146.03;;;4.73
79756;BMP280;69239;50.678;12.280;2023-12-20T01:49:54;97164.13;;;4.89
79756;BMP280;69239;50.678;12.280;2023-12-20T01:52:42;97161.53;;;4.89
79756;BMP280;69239;50.678;12.280;2023-12-20T01:55:16;97180.69;;;5.03
79756;BMP280;69239;50.678;12.280;2023-12-20T01:58:17;97133.00;;;4.73
79756;BMP280;69239;50.678;12.280;2023-12-20T02:03:57;97127.19;;;4.76
79756;BMP280;69239;50.678;12.280;2023-12-20T02:06:34;97118.41;;;4.72
79756;BMP280;69239;50.678;12.280;2023-12-20T02:09:05;97156.28;;;4.94
79756;BMP280;69239;50.678;12.280;2023-12-20T02:11:52;97113.22;;;4.72
79756;BMP280;69239;50.678;12.280;2023-12-20T02:14:35;97116.63;;;4.68
79756;BMP280;69239;50.678;12.280;2023-12-20T02:17:39;97144.53;;;4.91
79756;BMP280;69239;50.678;12.280;2023-12-20T02:20:19;97130.59;;;4.77
79756;BMP280;69239;50.678;12.280;2023-12-20T02:22:47;97127.69;;;4.78
79756;BMP280;69239;50.678;12.280;2023-12-20T02:28:16;97103.88;;;4.66
79756;BMP280;69239;50.678;12.280;2023-12-20T02:30:42;97127.97;;;4.77
79756;BMP280;69239;50.678;12.280;2023-12-20T02:33:12;97127.69;;;4.78
79756;BMP280;69239;50.678;12.280;2023-12-20T02:35:43;97148.16;;;4.95
79756;BMP280;69239;50.678;12.280;2023-12-20T02:41:04;97121.19;;;4.81
79756;BMP280;69239;50.678;12.280;2023-12-20T02:47:15;97108.19;;;4.76
79756;BMP280;69239;50.678;12.280;2023-12-20T02:49:23;97095.97;;;4.71
79756;BMP280;69239;50.678;12.280;2023-12-20T02:55:05;97096.50;;;4.73
79756;BMP280;69239;50.678;12.280;2023-12-20T03:00:37;97080.41;;;4.66
79756;BMP280;69239;50.678;12.280;2023-12-20T03:06:20;97117.50;;;4.82
79756;BMP280;69239;50.678;12.280;2023-12-20T03:08:51;97134.63;;;4.93
79756;BMP280;69239;50.678;12.280;2023-12-20T03:11:30;97085.09;;;4.64
79756;BMP280;69239;50.678;12.280;2023-12-20T03:13:58;97113.22;;;4.72
79756;BMP280;69239;50.678;12.280;2023-12-20T03:16:29;97114.75;;;4.73
79756;BMP280;69239;50.678;12.280;2023-12-20T03:19:08;97118.59;;;4.76
79756;BMP280;69239;50.678;12.280;2023-12-20T03:21:47;97103.31;;;4.69
79756;BMP280;69239;50.678;12.280;2023-12-20T03:24:52;97097.09;;;4.65
79756;BMP280;69239;50.678;12.280;2023-12-20T03:27:30;97093.44;;;4.66
79756;BMP280;69239;50.678;12.280;2023-12-20T03:30:31;97112.66;;;4.75
79756;BMP280;69239;50.678;12.280;2023-12-20T03:33:17;97108.53;;;4.69
79756;BMP280;69239;50.678;12.280;2023-12-20T03:35:51;97129.19;;;4.90
79756;BMP280;69239;50.678;12.280;2023-12-20T03:38:33;97096.53;;;4.68
79756;BMP280;69239;50.678;12.280;2023-12-20T03:41:12;97096.81;;;4.67
79756;BMP280;69239;50.678;12.280;2023-12-20T03:43:53;97102.22;;;4.75
79756;BMP280;69239;50.678;12.280;2023-12-20T03:46:36;97096.53;;;4.68
79756;BMP280;69239;50.678;12.280;2023-12-20T03:49:36;97101.19;;;4.71
79756;BMP280;69239;50.678;12.280;2023-12-20T03:52:07;97101.75;;;4.68
79756;BMP280;69239;50.678;12.280;2023-12-20T03:54:45;97109.78;;;4.72
79756;BMP280;69239;50.678;12.280;2023-12-20T03:57:37;97109.78;;;4.72
79756;BMP280;69239;50.678;12.280;2023-12-20T04:00:08;97100.69;;;4.69
79756;BMP280;69239;50.678;12.280;2023-12-20T04:02:47;97113.63;;;4.79
79756;BMP280;69239;50.678;12.280;2023-12-20T04:05:19;97122.91;;;4.91
79756;BMP280;69239;50.678;12.280;2023-12-20T04:07:53;97096.50;;;4.73
79756;BMP280;69239;50.678;12.280;2023-12-20T04:10:44;97088.72;;;4.68
79756;BMP280;69239;50.678;12.280;2023-12-20T04:13:24;97087.91;;;4.73
79756;BMP280;69239;50.678;12.280;2023-12-20T04:16:11;97090.00;;;4.71
79756;BMP280;69239;50.678;12.280;2023-12-20T04:18:37;97090.28;;;4.69
79756;BMP280;69239;50.678;12.280;2023-12-20T04:21:05;97106.41;;;4.71
79756;BMP280;69239;50.678;12.280;2023-12-20T04:23:39;97119.38;;;4.76
79756;BMP280;69239;50.678;12.280;2023-12-20T04:26:07;97099.13;;;4.73
79756;BMP280;69239;50.678;12.280;2023-12-20T04:28:38;97108.91;;;4.81
79756;BMP280;69239;50.678;12.280;2023-12-20T04:31:14;97111.28;;;4.78
79756;BMP280;69239;50.678;12.280;2023-12-20T04:33:39;97114.63;;;4.83
79756;BMP280;69239;50.678;12.280;2023-12-20T04:36:08;97086.84;;;4.74
79756;BMP280;69239;50.678;12.280;2023-12-20T04:38:34;97113.81;;;4.88
79756;BMP280;69239;50.678;12.280;2023-12-20T04:41:00;97119.84;;;4.83
79756;BMP280;69239;50.678;12.280;2023-12-20T04:43:25;97125.06;;;4.83
79756;BMP280;69239;50.678;12.280;2023-12-20T04:45:53;97097.00;;;4.75
79756;BMP280;69239;50.678;12.280;2023-12-20T04:48:18;97104.50;;;4.77
79756;BMP280;69239;50.678;12.280;2023-12-20T04:50:44;97120.47;;;4.75
79756;BMP280;69239;50.678;12.280;2023-12-20T04:53:10;97114.66;;;4.78
79756;BMP280;69239;50.678;12.280;2023-12-20T04:55:38;97131.72;;;4.95
79756;BMP280;69239;50.678;12.280;2023-12-20T04:58:10;97118.84;;;4.79
79756;BMP280;69239;50.678;12.280;2023-12-20T05:00:35;97143.56;;;4.87
79756;BMP280;69239;50.678;12.280;2023-12-20T05:03:06;97139.91;;;4.88
79756;BMP280;69239;50.678;12.280;2023-12-20T05:05:37;97117.78;;;4.80
79756;BMP280;69239;50.678;12.280;2023-12-20T05:08:03;97122.41;;;4.89
79756;BMP280;69239;50.678;12.280;2023-12-20T05:10:35;97127.13;;;4.87
79756;BMP280;69239;50.678;12.280;2023-12-20T05:13:01;97114.94;;;4.77
79756;BMP280;69239;50.678;12.280;2023-12-20T05:15:30;97139.63;;;4.90
79756;BMP280;69239;50.678;12.280;2023-12-20T05:17:58;97139.63;;;4.90
79756;BMP280;69239;50.678;12.280;2023-12-20T05:20:26;97158.19;;;5.07
79756;BMP280;69239;50.678;12.280;2023-12-20T05:23:03;97124.84;;;4.80
79756;BMP280;69239;50.678;12.280;2023-12-20T05:25:28;97110.75;;;4.81
79756;BMP280;69239;50.678;12.280;2023-12-20T05:29:55;97170.13;;;5.13
79756;BMP280;69239;50.678;12.280;2023-12-20T05:32:23;97165.81;;;5.27
79756;BMP280;69239;50.678;12.280;2023-12-20T05:34:48;97173.75;;;5.60
79756;BMP280;69239;50.678;12.280;2023-12-20T05:37:14;97173.13;;;5.68
79756;BMP280;69239;50.678;12.280;2023-12-20T05:39:39;97184.63;;;5.67
79756;BMP280;69239;50.678;12.280;2023-12-20T05:42:07;97190.00;;;5.57
79756;BMP280;69239;50.678;12.280;2023-12-20T05:44:33;97150.75;;;5.43
79756;BMP280;69239;50.678;12.280;2023-12-20T05:46:58;97172.59;;;5.71
79756;BMP280;69239;50.678;12.280;2023-12-20T05:49:31;97192.81;;;5.79
79756;BMP280;69239;50.678;12.280;2023-12-20T05:51:59;97174.06;;;5.58
79756;BMP280;69239;50.678;12.280;2023-12-20T05:54:24;97180.06;;;5.59
79756;BMP280;69239;50.678;12.280;2023-12-20T05:56:49;97188.94;;;5.58
79756;BMP280;69239;50.678;12.280;2023-12-20T05:59:15;97192.66;;;5.52
79756;BMP280;69239;50.678;12.280;2023-12-20T06:01:41;97186.25;;;5.44
79756;BMP280;69239;50.678;12.280;2023-12-20T06:04:06;97188.53;;;5.46
79756;BMP280;69239;50.678;12.280;2023-12-20T06:06:32;97201.53;;;5.51
79756;BMP280;69239;50.678;12.280;2023-12-20T06:08:57;97187.88;;;5.59
79756;BMP280;69239;50.678;12.280;2023-12-20T06:11:23;97192.09;;;5.55
79756;BMP280;69239;50.678;12.280;2023-12-20T06:13:48;97171.88;;;5.41
79756;BMP280;69239;50.678;12.280;2023-12-20T06:16:18;97195.56;;;5.50
79756;BMP280;69239;50.678;12.280;2023-12-20T06:18:43;97197.63;;;5.48
79756;BMP280;69239;50.678;12.280;2023-12-20T06:21:11;97183.91;;;5.43
79756;BMP280;69239;50.678;12.280;2023-12-20T06:23:38;97200.13;;;5.39
79756;BMP280;69239;50.678;12.280;2023-12-20T06:26:04;97210.03;;;5.43
79756;BMP280;69239;50.678;12.280;2023-12-20T06:28:29;97214.63;;;5.46
79756;BMP280;69239;50.678;12.280;2023-12-20T06:30:55;97212.63;;;5.43
79756;BMP280;69239;50.678;12.280;2023-12-20T06:33:20;97214.06;;;5.49
79756;BMP280;69239;50.678;12.280;2023-12-20T06:35:47;97213.09;;;5.45
79756;BMP280;69239;50.678;12.280;2023-12-20T06:38:13;97211.56;;;5.44
79756;BMP280;69239;50.678;12.280;2023-12-20T06:40:38;97220.19;;;5.44
79756;BMP280;69239;50.678;12.280;2023-12-20T06:43:03;97226.44;;;5.43
79756;BMP280;69239;50.678;12.280;2023-12-20T06:45:29;97210.59;;;5.34
79756;BMP280;69239;50.678;12.280;2023-12-20T06:47:57;97195.63;;;5.21
79756;BMP280;69239;50.678;12.280;2023-12-20T06:50:24;97181.91;;;5.10
79756;BMP280;69239;50.678;12.280;2023-12-20T06:52:55;97205.06;;;5.17
79756;BMP280;69239;50.678;12.280;2023-12-20T06:55:23;97242.44;;;5.36
79756;BMP280;69239;50.678;12.280;2023-12-20T06:57:55;97178.66;;;4.95
79756;BMP280;69239;50.678;12.280;2023-12-20T07:00:20;97178.09;;;4.98
79756;BMP280;69239;50.678;12.280;2023-12-20T07:02:46;97202.00;;;5.10
79756;BMP280;69239;50.678;12.280;2023-12-20T07:05:12;97235.41;;;5.32
79756;BMP280;69239;50.678;12.280;2023-12-20T07:07:41;97237.31;;;5.26
79756;BMP280;69239;50.678;12.280;2023-12-20T07:10:07;97218.91;;;5.12
79756;BMP280;69239;50.678;12.280;2023-12-20T07:12:33;97247.66;;;5.36
79756;BMP280;69239;50.678;12.280;2023-12-20T07:14:59;97245.81;;;5.37
79756;BMP280;69239;50.678;12.280;2023-12-20T07:17:24;97187.44;;;5.04
79756;BMP280;69239;50.678;12.280;2023-12-20T07:19:50;97215.66;;;5.26
79756;BMP280;69239;50.678;12.280;2023-12-20T07:22:16;97231.94;;;5.41
79756;BMP280;69239;50.678;12.280;2023-12-20T07:24:41;97226.25;;;5.34
79756;BMP280;69239;50.678;12.280;2023-12-20T07:27:07;97227.31;;;5.33
79756;BMP280;69239;50.678;12.280;2023-12-20T07:29:32;97250.91;;;5.47
79756;BMP280;69239;50.678;12.280;2023-12-20T07:31:57;97195.72;;;5.11
79756;BMP280;69239;50.678;12.280;2023-12-20T07:34:23;97246.56;;;5.43
79756;BMP280;69239;50.678;12.280;2023-12-20T07:36:48;97227.84;;;5.35
79756;BMP280;69239;50.678;12.280;2023-12-20T07:39:14;97210.28;;;5.17
79756;BMP280;69239;50.678;12.280;2023-12-20T07:41:40;97212.06;;;5.22
79756;BMP280;69239;50.678;12.280;2023-12-20T07:44:08;97224.75;;;5.28
79756;BMP280;69239;50.678;12.280;2023-12-20T07:46:33;97257.97;;;5.47
79756;BMP280;69239;50.678;12.280;2023-12-20T07:48:58;97249.63;;;5.45
79756;BMP280;69239;50.678;12.280;2023-12-20T07:51:24;97233.31;;;5.34
79756;BMP280;69239;50.678;12.280;2023-12-20T07:53:51;97268.84;;;5.54
79756;BMP280;69239;50.678;12.280;2023-12-20T07:56:20;97243.66;;;5.44
79756;BMP280;69239;50.678;12.280;2023-12-20T07:58:45;97219.53;;;5.28
79756;BMP280;69239;50.678;12.280;2023-12-20T08:01:11;97233.75;;;5.41
79756;BMP280;69239;50.678;12.280;2023-12-20T08:03:38;97262.03;;;5.58
79756;BMP280;69239;50.678;12.280;2023-12-20T08:06:04;97241.53;;;5.46
79756;BMP280;69239;50.678;12.280;2023-12-20T08:08:30;97265.28;;;5.68
79756;BMP280;69239;50.678;12.280;2023-12-20T08:10:55;97241.06;;;5.63
79756;BMP280;69239;50.678;12.280;2023-12-20T08:13:23;97251.97;;;5.70
79756;BMP280;69239;50.678;12.280;2023-12-20T08:15:52;97255.50;;;5.79
79756;BMP280;69239;50.678;12.280;2023-12-20T08:18:17;97233.91;;;5.74
79756;BMP280;69239;50.678;12.280;2023-12-20T08:20:42;97251.50;;;6.43
79756;BMP280;69239;50.678;12.280;2023-12-20T08:23:08;97250.16;;;6.78
79756;BMP280;69239;50.678;12.280;2023-12-20T08:25:36;97250.59;;;6.67
79756;BMP280;69239;50.678;12.280;2023-12-20T08:28:02;97240.88;;;6.53
79756;BMP280;69239;50.678;12.280;2023-12-20T08:30:29;97262.91;;;6.66
79756;BMP280;69239;50.678;12.280;2023-12-20T08:32:56;97232.13;;;6.44
79756;BMP280;69239;50.678;12.280;2023-12-20T08:35:28;97219.22;;;6.67
79756;BMP280;69239;50.678;12.280;2023-12-20T08:37:53;97236.53;;;6.95
79756;BMP280;69239;50.678;12.280;2023-12-20T08:40:21;97226.44;;;7.02
79756;BMP280;69239;50.678;12.280;2023-12-20T08:42:46;97239.63;;;7.52
79756;BMP280;69239;50.678;12.280;2023-12-20T08:45:14;97264.69;;;8.53
79756;BMP280;69239;50.678;12.280;2023-12-20T08:47:43;97268.88;;;9.73
79756;BMP280;69239;50.678;12.280;2023-12-20T08:50:13;97250.22;;;10.64
79756;BMP280;69239;50.678;12.280;2023-12-20T08:52:41;97282.13;;;11.09
79756;BMP280;69239;50.678;12.280;2023-12-20T08:55:12;97215.66;;;10.74
79756;BMP280;69239;50.678;12.280;2023-12-20T08:57:40;97225.91;;;10.67
79756;BMP280;69239;50.678;12.280;2023-12-20T09:00:06;97271.00;;;10.48
79756;BMP280;69239;50.678;12.280;2023-12-20T09:02:32;97263.03;;;9.93
79756;BMP280;69239;50.678;12.280;2023-12-20T09:05:01;97277.81;;;9.63
79756;BMP280;69239;50.678;12.280;2023-12-20T09:07:28;97283.78;;;9.38
79756;BMP280;69239;50.678;12.280;2023-12-20T09:09:55;97275.13;;;9.37
79756;BMP280;69239;50.678;12.280;2023-12-20T09:12:21;97296.91;;;9.94
79756;BMP280;69239;50.678;12.280;2023-12-20T09:14:48;97296.34;;;10.79
79756;BMP280;69239;50.678;12.280;2023-12-20T09:17:15;97261.47;;;11.20
79756;BMP280;69239;50.678;12.280;2023-12-20T09:19:42;97266.06;;;11.02
79756;BMP280;69239;50.678;12.280;2023-12-20T09:22:08;97271.16;;;10.52
79756;BMP280;69239;50.678;12.280;2023-12-20T09:24:34;97275.06;;;10.11
79756;BMP280;69239;50.678;12.280;2023-12-20T09:26:59;97276.75;;;9.90
79756;BMP280;69239;50.678;12.280;2023-12-20T09:29:25;97252.84;;;9.43
79756;BMP280;69239;50.678;12.280;2023-12-20T09:31:50;97284.69;;;9.42
79756;BMP280;69239;50.678;12.280;2023-12-20T09:34:16;97258.94;;;9.04
79756;BMP280;69239;50.678;12.280;2023-12-20T09:36:42;97247.84;;;8.76
79756;BMP280;69239;50.678;12.280;2023-12-20T09:39:16;97242.66;;;8.54
79756;BMP280;69239;50.678;12.280;2023-12-20T09:41:45;97227.19;;;8.30
79756;BMP280;69239;50.678;12.280;2023-12-20T09:44:16;97206.22;;;8.07
79756;BMP280;69239;50.678;12.280;2023-12-20T09:47:06;97241.91;;;8.17
79756;BMP280;69239;50.678;12.280;2023-12-20T09:49:32;97242.25;;;8.02
79756;BMP280;69239;50.678;12.280;2023-12-20T09:51:59;97246.06;;;7.96
79756;BMP280;69239;50.678;12.280;2023-12-20T09:54:25;97256.47;;;7.87
79756;BMP280;69239;50.678;12.280;2023-12-20T09:56:52;97243.38;;;7.73
79756;BMP280;69239;50.678;12.280;2023-12-20T09:59:17;97203.19;;;7.42
79756;BMP280;69239;50.678;12.280;2023-12-20T10:01:45;97244.72;;;7.85
79756;BMP280;69239;50.678;12.280;2023-12-20T10:04:13;97218.63;;;9.65
79756;BMP280;69239;50.678;12.280;2023-12-20T10:06:42;97227.06;;;11.67
79756;BMP280;69239;50.678;12.280;2023-12-20T10:09:09;97238.75;;;11.57
79756;BMP280;69239;50.678;12.280;2023-12-20T10:11:36;97236.78;;;10.95
79756;BMP280;69239;50.678;12.280;2023-12-20T10:14:02;97206.22;;;10.09
79756;BMP280;69239;50.678;12.280;2023-12-20T10:16:28;97216.88;;;9.69
79756;BMP280;69239;50.678;12.280;2023-12-20T10:18:54;97235.53;;;9.33
79756;BMP280;69239;50.678;12.280;2023-12-20T10:21:20;97203.88;;;8.82
79756;BMP280;69239;50.678;12.280;2023-12-20T10:23:52;97219.72;;;8.68
79756;BMP280;69239;50.678;12.280;2023-12-20T10:26:22;97225.16;;;8.49
79756;BMP280;69239;50.678;12.280;2023-12-20T10:29:00;97192.22;;;8.12
79756;BMP280;69239;50.678;12.280;2023-12-20T10:31:30;97198.66;;;8.06
79756;BMP280;69239;50.678;12.280;2023-12-20T10:33:57;97223.50;;;8.08
79756;BMP280;69239;50.678;12.280;2023-12-20T10:36:25;97191.53;;;7.84
79756;BMP280;69239;50.678;12.280;2023-12-20T10:38:52;97197.97;;;7.78
79756;BMP280;69239;50.678;12.280;2023-12-20T10:41:29;97211.84;;;7.78
79756;BMP280;69239;50.678;12.280;2023-12-20T10:44:03;97200.50;;;7.69
79756;BMP280;69239;50.678;12.280;2023-12-20T10:46:30;97196.44;;;7.63
79756;BMP280;69239;50.678;12.280;2023-12-20T10:48:57;97171.06;;;7.50
79756;BMP280;69239;50.678;12.280;2023-12-20T10:51:23;97194.66;;;7.72
79756;BMP280;69239;50.678;12.280;2023-12-20T10:53:53;97174.50;;;7.59
79756;BMP280;69239;50.678;12.280;2023-12-20T10:56:19;97163.66;;;7.52
79756;BMP280;69239;50.678;12.280;2023-12-20T10:58:48;97161.91;;;7.61
79756;BMP280;69239;50.678;12.280;2023-12-20T11:01:15;97121.13;;;7.46
79756;BMP280;69239;50.678;12.280;2023-12-20T11:03:52;97167.09;;;7.89
79756;BMP280;69239;50.678;12.280;2023-12-20T11:06:49;97176.16;;;8.13
79756;BMP280;69239;50.678;12.280;2023-12-20T11:09:21;97165.38;;;8.15
79756;BMP280;69239;50.678;12.280;2023-12-20T11:14:23;97151.88;;;7.99
79756;BMP280;69239;50.678;12.280;2023-12-20T11:16:50;97150.97;;;8.04
79756;BMP280;69239;50.678;12.280;2023-12-20T11:19:16;97159.31;;;8.06
79756;BMP280;69239;50.678;12.280;2023-12-20T11:21:42;97160.56;;;8.08
79756;BMP280;69239;50.678;12.280;2023-12-20T11:24:08;97144.66;;;8.05
79756;BMP280;69239;50.678;12.280;2023-12-20T11:26:36;97177.16;;;8.18
79756;BMP280;69239;50.678;12.280;2023-12-20T11:29:33;97168.16;;;8.32
79756;BMP280;69239;50.678;12.280;2023-12-20T11:32:01;97160.69;;;8.26
79756;BMP280;69239;50.678;12.280;2023-12-20T11:34:28;97146.94;;;8.20
79756;BMP280;69239;50.678;12.280;2023-12-20T11:37:00;97147.53;;;8.17
79756;BMP280;69239;50.678;12.280;2023-12-20T11:39:28;97143.50;;;8.11
79756;BMP280;69239;50.678;12.280;2023-12-20T11:41:57;97145.47;;;8.14
79756;BMP280;69239;50.678;12.280;2023-12-20T11:44:24;97134.34;;;8.08
79756;BMP280;69239;50.678;12.280;2023-12-20T11:46:50;97137.88;;;8.04
79756;BMP280;69239;50.678;12.280;2023-12-20T11:49:16;97145.75;;;8.04
79756;BMP280;69239;50.678;12.280;2023-12-20T11:51:42;97142.19;;;8.00
79756;BMP280;69239;50.678;12.280;2023-12-20T11:54:09;97139.84;;;7.98
79756;BMP280;69239;50.678;12.280;2023-12-20T11:56:38;97131.63;;;7.91
79756;BMP280;69239;50.678;12.280;2023-12-20T11:59:04;97145.41;;;7.97
79756;BMP280;69239;50.678;12.280;2023-12-20T12:01:31;97145.97;;;7.94
79756;BMP280;69239;50.678;12.280;2023-12-20T12:04:04;97148.44;;;7.90
79756;BMP280;69239;50.678;12.280;2023-12-20T12:06:29;97163.97;;;7.87
79756;BMP280;69239;50.678;12.280;2023-12-20T12:08:54;97142.47;;;7.76
79756;BMP280;69239;50.678;12.280;2023-12-20T12:11:21;97137.22;;;7.76
79756;BMP280;69239;50.678;12.280;2023-12-20T12:13:47;97148.25;;;7.87
79756;BMP280;69239;50.678;12.280;2023-12-20T12:16:16;97134.78;;;7.79
79756;BMP280;69239;50.678;12.280;2023-12-20T12:18:45;97142.22;;;7.86
79756;BMP280;69239;50.678;12.280;2023-12-20T12:21:18;97120.00;;;7.83
79756;BMP280;69239;50.678;12.280;2023-12-20T12:23:43;97113.69;;;7.85
79756;BMP280;69239;50.678;12.280;2023-12-20T12:26:09;97114.44;;;7.76
79756;BMP280;69239;50.678;12.280;2023-12-20T12:28:34;97103.09;;;7.67
79756;BMP280;69239;50.678;12.280;2023-12-20T12:31:00;97115.06;;;7.82
79756;BMP280;69239;50.678;12.280;2023-12-20T12:33:26;97110.31;;;7.84
79756;BMP280;69239;50.678;12.280;2023-12-20T12:35:51;97107.47;;;7.80
79756;BMP280;69239;50.678;12.280;2023-12-20T12:38:20;97116.50;;;7.88
79756;BMP280;69239;50.678;12.280;2023-12-20T12:40:46;97108.75;;;7.83
79756;BMP280;69239;50.678;12.280;2023-12-20T12:43:12;97108.88;;;7.78
79756;BMP280;69239;50.678;12.280;2023-12-20T12:45:38;97103.41;;;7.66
79756;BMP280;69239;50.678;12.280;2023-12-20T12:48:04;97109.91;;;7.68
79756;BMP280;69239;50.678;12.280;2023-12-20T12:50:30;97105.72;;;7.67
79756;BMP280;69239;50.678;12.280;2023-12-20T12:53:05;97090.28;;;7.66
79756;BMP280;69239;50.678;12.280;2023-12-20T12:55:30;97092.53;;;7.59
79756;BMP280;69239;50.678;12.280;2023-12-20T12:57:58;97088.38;;;7.58
79756;BMP280;69239;50.678;12.280;2023-12-20T13:00:23;97104.84;;;7.58
79756;BMP280;69239;50.678;12.280;2023-12-20T13:02:49;97106.81;;;7.52
79756;BMP280;69239;50.678;12.280;2023-12-20T13:05:16;97092.72;;;7.40
79756;BMP280;69239;50.678;12.280;2023-12-20T13:07:43;97090.09;;;7.40
79756;BMP280;69239;50.678;12.280;2023-12-20T13:10:10;97076.25;;;7.39
79756;BMP280;69239;50.678;12.280;2023-12-20T13:12:36;97085.06;;;7.66
79756;BMP280;69239;50.678;12.280;2023-12-20T13:15:01;97079.63;;;8.16
79756;BMP280;69239;50.678;12.280;2023-12-20T13:17:29;97061.56;;;9.19
79756;BMP280;69239;50.678;12.280;2023-12-20T13:19:55;97034.84;;;9.17
79756;BMP280;69239;50.678;12.280;2023-12-20T13:22:20;97043.50;;;10.67
79756;BMP280;69239;50.678;12.280;2023-12-20T13:24:45;97056.25;;;12.57
79756;BMP280;69239;50.678;12.280;2023-12-20T13:27:11;97031.00;;;13.40
79756;BMP280;69239;50.678;12.280;2023-12-20T13:29:36;97041.22;;;13.58
79756;BMP280;69239;50.678;12.280;2023-12-20T13:32:02;97019.56;;;12.80
79756;BMP280;69239;50.678;12.280;2023-12-20T13:34:29;97016.63;;;11.93
79756;BMP280;69239;50.678;12.280;2023-12-20T13:36:55;97020.16;;;11.19
79756;BMP280;69239;50.678;12.280;2023-12-20T13:39:20;97025.13;;;10.58
79756;BMP280;69239;50.678;12.280;2023-12-20T13:41:46;97040.38;;;10.14
79756;BMP280;69239;50.678;12.280;2023-12-20T13:44:12;97033.56;;;9.66
79756;BMP280;69239;50.678;12.280;2023-12-20T13:46:37;97034.22;;;9.29
79756;BMP280;69239;50.678;12.280;2023-12-20T13:49:03;97030.50;;;8.95
79756;BMP280;69239;50.678;12.280;2023-12-20T13:51:28;97034.19;;;8.77
79756;BMP280;69239;50.678;12.280;2023-12-20T13:53:54;97033.97;;;8.56
79756;BMP280;69239;50.678;12.280;2023-12-20T13:56:19;97029.59;;;8.34
79756;BMP280;69239;50.678;12.280;2023-12-20T13:58:45;97025.22;;;8.12
79756;BMP280;69239;50.678;12.280;2023-12-20T14:01:12;97039.81;;;8.05
79756;BMP280;69239;50.678;12.280;2023-12-20T14:03:37;97028.78;;;7.86
79756;BMP280;69239;50.678;12.280;2023-12-20T14:06:03;97036.28;;;7.78
79756;BMP280;69239;50.678;12.280;2023-12-20T14:08:28;97026.69;;;7.74
79756;BMP280;69239;50.678;12.280;2023-12-20T14:10:54;97020.94;;;7.63
79756;BMP280;69239;50.678;12.280;2023-12-20T14:13:19;97040.66;;;7.61
79756;BMP280;69239;50.678;12.280;2023-12-20T14:15:46;97033.78;;;7.51
79756;BMP280;69239;50.678;12.280;2023-12-20T14:18:12;97026.28;;;7.36
79756;BMP280;69239;50.678;12.280;2023-12-20T14:20:40;97040.56;;;7.30
79756;BMP280;69239;50.678;12.280;2023-12-20T14:23:08;97038.97;;;7.20
79756;BMP280;69239;50.678;12.280;2023-12-20T14:25:36;97035.19;;;7.12
79756;BMP280;69239;50.678;12.280;2023-12-20T14:28:03;97036.84;;;7.08
79756;BMP280;69239;50.678;12.280;2023-12-20T14:30:29;97049.94;;;7.08
79756;BMP280;69239;50.678;12.280;2023-12-20T14:32:54;97043.28;;;6.88
79756;BMP280;69239;50.678;12.280;2023-12-20T14:35:20;97066.31;;;7.00
79756;BMP280;69239;50.678;12.280;2023-12-20T14:37:45;97060.44;;;6.95
79756;BMP280;69239;50.678;12.280;2023-12-20T14:40:11;97049.41;;;6.84
79756;BMP280;69239;50.678;12.280;2023-12-20T14:42:44;97047.19;;;6.77
79756;BMP280;69239;50.678;12.280;2023-12-20T14:45:09;97045.34;;;6.78
79756;BMP280;69239;50.678;12.280;2023-12-20T14:47:35;97036.06;;;6.72
79756;BMP280;69239;50.678;12.280;2023-12-20T14:50:04;97036.44;;;6.65
79756;BMP280;69239;50.678;12.280;2023-12-20T14:52:30;97017.66;;;6.49